sensor_id;sensor_type;location;lat;lon;timestamp;pressure;altitude;pressure_sealevel;temperature;humidity
17383;BME280;8809;51.892;8.384;2023-05-22T00:01:12;100440.75;;;18.96;100.00
17383;BME280;8809;51.892;8.384;2023-05-22T00:03:44;100435.47;;;18.93;100.00
17383;BME280;8809;51.892;8.384;2023-05-22T00:06:14;100439.88;;;18.90;100.00
17383;BME280;8809;51.892;8.384;2023-05-22T00:08:43;100431.03;;;18.88;100.00
17383;BME280;8809;51.892;8.384;2023-05-22T00:11:10;100438.06;;;18.86;100.00
17383;BME280;8809;51.892;8.384;2023-05-22T00:13:38;100440.69;;;18.85;100.00
17383;BME280;8809;51.892;8.384;2023-05-22T00:16:06;100432.78;;;18.82;100.00
17383;BME280;8809;51.892;8.384;2023-05-22T00:18:33;100428.34;;;18.79;100.00
17383;BME280;8809;51.892;8.384;2023-05-22T00:21:00;100427.44;;;18.77;100.00
17383;BME280;8809;51.892;8.384;2023-05-22T00:23:29;100421.28;;;18.74;100.00
17383;BME280;8809;51.892;8.384;2023-05-22T00:25:56;100417.72;;;18.70;100.00
17383;BME280;8809;51.892;8.384;2023-05-22T00:28:23;100423.88;;;18.68;100.00
17383;BME280;8809;51.892;8.384;2023-05-22T00:30:51;100414.16;;;18.65;100.00
17383;BME280;8809;51.892;8.384;2023-05-22T00:33:18;100415.91;;;18.62;100.00
17383;BME280;8809;51.892;8.384;2023-05-22T00:35:46;100407.09;;;18.58;100.00
17383;BME280;8809;51.892;8.384;2023-05-22T00:38:26;100399.09;;;18.57;100.00
17383;BME280;8809;51.892;8.384;2023-05-22T00:40:57;100394.72;;;18.54;100.00
17383;BME280;8809;51.892;8.384;2023-05-22T00:43:24;100393.81;;;18.52;100.00
17383;BME280;8809;51.892;8.384;2023-05-22T00:45:51;100398.19;;;18.48;100.00
17383;BME280;8809;51.892;8.384;2023-05-22T00:48:18;100399.94;;;18.48;100.00
17383;BME280;8809;51.892;8.384;2023-05-22T00:50:47;100400.78;;;18.45;100.00
17383;BME280;8809;51.892;8.384;2023-05-22T00:53:14;100394.66;;;18.45;100.00
17383;BME280;8809;51.892;8.384;2023-05-22T00:55:42;100391.13;;;18.43;100.00
17383;BME280;8809;51.892;8.384;2023-05-22T00:58:14;100397.25;;;18.40;100.00
17383;BME280;8809;51.892;8.384;2023-05-22T01:00:41;100396.38;;;18.40;100.00
17383;BME280;8809;51.892;8.384;2023-05-22T01:03:09;100396.34;;;18.38;100.00
17383;BME280;8809;51.892;8.384;2023-05-22T01:05:37;100395.44;;;18.36;100.00
17383;BME280;8809;51.892;8.384;2023-05-22T01:08:07;100394.59;;;18.34;100.00
17383;BME280;8809;51.892;8.384;2023-05-22T01:10:38;100401.63;;;18.34;100.00
17383;BME280;8809;51.892;8.384;2023-05-22T01:13:14;100392.81;;;18.33;100.00
17383;BME280;8809;51.892;8.384;2023-05-22T01:15:51;100386.63;;;18.30;100.00
17383;BME280;8809;51.892;8.384;2023-05-22T01:18:27;100387.47;;;18.29;100.00
17383;BME280;8809;51.892;8.384;2023-05-22T01:21:01;100388.34;;;18.26;100.00
17383;BME280;8809;51.892;8.384;2023-05-22T01:23:52;100388.34;;;18.25;100.00
17383;BME280;8809;51.892;8.384;2023-05-22T01:26:44;100389.19;;;18.22;100.00
17383;BME280;8809;51.892;8.384;2023-05-22T01:29:29;100390.94;;;18.20;100.00
17383;BME280;8809;51.892;8.384;2023-05-22T01:32:03;100380.38;;;18.18;100.00
17383;BME280;8809;51.892;8.384;2023-05-22T01:34:33;100390.03;;;18.18;100.00
17383;BME280;8809;51.892;8.384;2023-05-22T01:37:04;100395.34;;;18.16;100.00
17383;BME280;8809;51.892;8.384;2023-05-22T01:39:32;100397.06;;;18.17;100.00
17383;BME280;8809;51.892;8.384;2023-05-22T01:42:01;100397.06;;;18.17;100.00
17383;BME280;8809;51.892;8.384;2023-05-22T01:44:28;100396.19;;;18.17;100.00
17383;BME280;8809;51.892;8.384;2023-05-22T01:46:55;100401.50;;;18.15;100.00
17383;BME280;8809;51.892;8.384;2023-05-22T01:49:26;100392.69;;;18.15;100.00
17383;BME280;8809;51.892;8.384;2023-05-22T01:51:57;100390.03;;;18.13;100.00
17383;BME280;8809;51.892;8.384;2023-05-22T01:54:31;100392.66;;;18.13;100.00
17383;BME280;8809;51.892;8.384;2023-05-22T01:57:12;100382.97;;;18.12;100.00
17383;BME280;8809;51.892;8.384;2023-05-22T01:59:45;100388.25;;;18.11;100.00
17383;BME280;8809;51.892;8.384;2023-05-22T02:02:16;100390.00;;;18.12;100.00
17383;BME280;8809;51.892;8.384;2023-05-22T02:04:48;100385.59;;;18.09;100.00
17383;BME280;8809;51.892;8.384;2023-05-22T02:07:18;100386.44;;;18.08;100.00
17383;BME280;8809;51.892;8.384;2023-05-22T02:09:47;100382.03;;;18.07;100.00
17383;BME280;8809;51.892;8.384;2023-05-22T02:12:16;100380.31;;;18.06;100.00
17383;BME280;8809;51.892;8.384;2023-05-22T02:14:43;100372.38;;;18.06;100.00
17383;BME280;8809;51.892;8.384;2023-05-22T02:17:11;100378.53;;;18.05;100.00
17383;BME280;8809;51.892;8.384;2023-05-22T02:19:38;100381.16;;;18.04;100.00
17383;BME280;8809;51.892;8.384;2023-05-22T02:22:07;100380.25;;;18.03;100.00
17383;BME280;8809;51.892;8.384;2023-05-22T02:24:39;100378.50;;;18.02;100.00
17383;BME280;8809;51.892;8.384;2023-05-22T02:27:07;100380.22;;;18.00;100.00
17383;BME280;8809;51.892;8.384;2023-05-22T02:29:34;100380.22;;;18.00;100.00
17383;BME280;8809;51.892;8.384;2023-05-22T02:32:02;100370.53;;;17.98;100.00
17383;BME280;8809;51.892;8.384;2023-05-22T02:34:29;100368.78;;;17.97;100.00
17383;BME280;8809;51.892;8.384;2023-05-22T02:36:58;100374.94;;;17.97;100.00
17383;BME280;8809;51.892;8.384;2023-05-22T02:39:30;100363.50;;;17.95;100.00
17383;BME280;8809;51.892;8.384;2023-05-22T02:41:58;100360.84;;;17.94;100.00
17383;BME280;8809;51.892;8.384;2023-05-22T02:44:25;100354.66;;;17.93;100.00
17383;BME280;8809;51.892;8.384;2023-05-22T02:46:52;100351.16;;;17.93;100.00
17383;BME280;8809;51.892;8.384;2023-05-22T02:49:19;100352.00;;;17.92;100.00
17383;BME280;8809;51.892;8.384;2023-05-22T02:51:46;100354.63;;;17.90;100.00
17383;BME280;8809;51.892;8.384;2023-05-22T02:54:14;100351.09;;;17.90;100.00
17383;BME280;8809;51.892;8.384;2023-05-22T02:56:43;100343.16;;;17.88;100.00
17383;BME280;8809;51.892;8.384;2023-05-22T02:59:10;100344.06;;;17.89;100.00
17383;BME280;8809;51.892;8.384;2023-05-22T03:01:37;100338.78;;;17.87;100.00
17383;BME280;8809;51.892;8.384;2023-05-22T03:04:05;100336.16;;;17.87;100.00
17383;BME280;8809;51.892;8.384;2023-05-22T03:06:32;100329.97;;;17.85;100.00
17383;BME280;8809;51.892;8.384;2023-05-22T03:09:02;100335.25;;;17.85;100.00
17383;BME280;8809;51.892;8.384;2023-05-22T03:11:29;100331.72;;;17.83;100.00
17383;BME280;8809;51.892;8.384;2023-05-22T03:13:58;100324.66;;;17.82;100.00
17383;BME280;8809;51.892;8.384;2023-05-22T03:16:25;100327.28;;;17.80;100.00
17383;BME280;8809;51.892;8.384;2023-05-22T03:19:08;100323.75;;;17.80;100.00
17383;BME280;8809;51.892;8.384;2023-05-22T03:21:35;100328.16;;;17.79;100.00
17383;BME280;8809;51.892;8.384;2023-05-22T03:24:03;100331.66;;;17.78;100.00
17383;BME280;8809;51.892;8.384;2023-05-22T03:26:30;100333.44;;;17.78;100.00
17383;BME280;8809;51.892;8.384;2023-05-22T03:28:59;100325.50;;;17.76;100.00
17383;BME280;8809;51.892;8.384;2023-05-22T03:31:28;100323.75;;;17.77;100.00
17383;BME280;8809;51.892;8.384;2023-05-22T03:33:56;100325.50;;;17.75;100.00
17383;BME280;8809;51.892;8.384;2023-05-22T03:36:23;100333.38;;;17.73;100.00
17383;BME280;8809;51.892;8.384;2023-05-22T03:38:50;100331.63;;;17.72;100.00
17383;BME280;8809;51.892;8.384;2023-05-22T03:41:18;100331.59;;;17.71;100.00
17383;BME280;8809;51.892;8.384;2023-05-22T03:43:45;100328.09;;;17.72;100.00
17383;BME280;8809;51.892;8.384;2023-05-22T03:46:13;100326.31;;;17.71;100.00
17383;BME280;8809;51.892;8.384;2023-05-22T03:48:41;100329.84;;;17.70;100.00
17383;BME280;8809;51.892;8.384;2023-05-22T03:51:08;100327.19;;;17.70;100.00
17383;BME280;8809;51.892;8.384;2023-05-22T03:53:35;100318.41;;;17.69;100.00
17383;BME280;8809;51.892;8.384;2023-05-22T03:56:02;100321.03;;;17.69;100.00
17383;BME280;8809;51.892;8.384;2023-05-22T03:58:29;100321.94;;;17.68;100.00
17383;BME280;8809;51.892;8.384;2023-05-22T04:00:56;100326.31;;;17.68;100.00
17383;BME280;8809;51.892;8.384;2023-05-22T04:03:27;100323.69;;;17.68;100.00
17383;BME280;8809;51.892;8.384;2023-05-22T04:05:54;100320.16;;;17.66;100.00
17383;BME280;8809;51.892;8.384;2023-05-22T04:08:23;100326.31;;;17.66;100.00
17383;BME280;8809;51.892;8.384;2023-05-22T04:10:50;100328.03;;;17.64;100.00
17383;BME280;8809;51.892;8.384;2023-05-22T04:13:20;100322.75;;;17.64;100.00
17383;BME280;8809;51.892;8.384;2023-05-22T04:15:47;100325.38;;;17.63;100.00
17383;BME280;8809;51.892;8.384;2023-05-22T04:18:14;100320.09;;;17.63;100.00
17383;BME280;8809;51.892;8.384;2023-05-22T04:20:43;100322.75;;;17.64;100.00
17383;BME280;8809;51.892;8.384;2023-05-22T04:23:10;100322.69;;;17.61;100.00
17383;BME280;8809;51.892;8.384;2023-05-22T04:25:38;100319.16;;;17.61;100.00
17383;BME280;8809;51.892;8.384;2023-05-22T04:28:13;100325.34;;;17.61;100.00
17383;BME280;8809;51.892;8.384;2023-05-22T04:30:44;100327.09;;;17.61;100.00
17383;BME280;8809;51.892;8.384;2023-05-22T04:33:11;100327.09;;;17.61;100.00
17383;BME280;8809;51.892;8.384;2023-05-22T04:35:38;100327.06;;;17.59;100.00
17383;BME280;8809;51.892;8.384;2023-05-22T04:38:08;100333.22;;;17.60;100.00
17383;BME280;8809;51.892;8.384;2023-05-22T04:40:35;100330.59;;;17.60;100.00
17383;BME280;8809;51.892;8.384;2023-05-22T04:43:02;100335.88;;;17.61;100.00
17383;BME280;8809;51.892;8.384;2023-05-22T04:45:29;100342.03;;;17.62;100.00
17383;BME280;8809;51.892;8.384;2023-05-22T04:47:57;100341.22;;;17.63;100.00
17383;BME280;8809;51.892;8.384;2023-05-22T04:50:27;100335.06;;;17.64;100.00
17383;BME280;8809;51.892;8.384;2023-05-22T04:52:57;100340.34;;;17.64;100.00
17383;BME280;8809;51.892;8.384;2023-05-22T04:55:26;100340.34;;;17.64;100.00
17383;BME280;8809;51.892;8.384;2023-05-22T04:57:54;100350.91;;;17.65;100.00
17383;BME280;8809;51.892;8.384;2023-05-22T05:00:22;100344.78;;;17.66;100.00
17383;BME280;8809;51.892;8.384;2023-05-22T05:02:51;100338.63;;;17.66;100.00
17383;BME280;8809;51.892;8.384;2023-05-22T05:05:18;100335.97;;;17.66;100.00
17383;BME280;8809;51.892;8.384;2023-05-22T05:07:47;100341.25;;;17.66;100.00
17383;BME280;8809;51.892;8.384;2023-05-22T05:10:18;100339.50;;;17.68;100.00
17383;BME280;8809;51.892;8.384;2023-05-22T05:12:47;100332.47;;;17.70;100.00
17383;BME280;8809;51.892;8.384;2023-05-22T05:15:14;100332.47;;;17.70;100.00
17383;BME280;8809;51.892;8.384;2023-05-22T05:17:41;100335.16;;;17.74;100.00
17383;BME280;8809;51.892;8.384;2023-05-22T05:20:09;100332.53;;;17.76;100.00
17383;BME280;8809;51.892;8.384;2023-05-22T05:22:38;100336.09;;;17.78;100.00
17383;BME280;8809;51.892;8.384;2023-05-22T05:25:07;100334.31;;;17.80;100.00
17383;BME280;8809;51.892;8.384;2023-05-22T05:27:34;100332.59;;;17.82;100.00
17383;BME280;8809;51.892;8.384;2023-05-22T05:30:03;100333.47;;;17.83;100.00
17383;BME280;8809;51.892;8.384;2023-05-22T05:32:30;100333.50;;;17.86;100.00
17383;BME280;8809;51.892;8.384;2023-05-22T05:34:57;100335.25;;;17.88;100.00
17383;BME280;8809;51.892;8.384;2023-05-22T05:37:24;100339.66;;;17.89;100.00
17383;BME280;8809;51.892;8.384;2023-05-22T05:39:52;100339.69;;;17.92;100.00
17383;BME280;8809;51.892;8.384;2023-05-22T05:42:19;100343.28;;;17.97;100.00
17383;BME280;8809;51.892;8.384;2023-05-22T05:44:46;100330.03;;;17.93;100.00
17383;BME280;8809;51.892;8.384;2023-05-22T05:47:15;100336.22;;;17.95;100.00
17383;BME280;8809;51.892;8.384;2023-05-22T05:49:42;100343.28;;;17.97;100.00
17383;BME280;8809;51.892;8.384;2023-05-22T05:52:09;100341.50;;;17.99;100.00
17383;BME280;8809;51.892;8.384;2023-05-22T05:54:36;100340.63;;;17.99;100.00
17383;BME280;8809;51.892;8.384;2023-05-22T05:57:05;100343.25;;;17.99;100.00
17383;BME280;8809;51.892;8.384;2023-05-22T05:59:32;100347.66;;;17.97;100.00
17383;BME280;8809;51.892;8.384;2023-05-22T06:01:59;100339.72;;;17.94;100.00
17383;BME280;8809;51.892;8.384;2023-05-22T06:04:28;100343.22;;;17.93;100.00
17383;BME280;8809;51.892;8.384;2023-05-22T06:06:55;100339.72;;;17.95;100.00
17383;BME280;8809;51.892;8.384;2023-05-22T06:09:22;100338.84;;;17.93;100.00
17383;BME280;8809;51.892;8.384;2023-05-22T06:11:50;100341.50;;;17.96;100.00
17383;BME280;8809;51.892;8.384;2023-05-22T06:14:17;100349.41;;;17.98;100.00
17383;BME280;8809;51.892;8.384;2023-05-22T06:16:45;100338.88;;;18.01;100.00
17383;BME280;8809;51.892;8.384;2023-05-22T06:19:13;100336.25;;;18.02;100.00
17383;BME280;8809;51.892;8.384;2023-05-22T06:21:43;100345.03;;;18.01;100.00
17383;BME280;8809;51.892;8.384;2023-05-22T06:24:13;100336.25;;;18.02;100.00
17383;BME280;8809;51.892;8.384;2023-05-22T06:26:41;100344.22;;;18.05;100.00
17383;BME280;8809;51.892;8.384;2023-05-22T06:29:08;100351.25;;;18.08;100.00
17383;BME280;8809;51.892;8.384;2023-05-22T06:31:36;100347.75;;;18.12;100.00
17383;BME280;8809;51.892;8.384;2023-05-22T06:34:04;100347.81;;;18.16;100.00
17383;BME280;8809;51.892;8.384;2023-05-22T06:36:31;100346.94;;;18.19;100.00
17383;BME280;8809;51.892;8.384;2023-05-22T06:39:01;100344.31;;;18.24;100.00
17383;BME280;8809;51.892;8.384;2023-05-22T06:41:28;100341.72;;;18.30;100.00
17383;BME280;8809;51.892;8.384;2023-05-22T06:43:57;100353.22;;;18.35;100.00
17383;BME280;8809;51.892;8.384;2023-05-22T06:46:24;100347.06;;;18.40;100.00
17383;BME280;8809;51.892;8.384;2023-05-22T06:48:52;100350.59;;;18.45;100.00
17383;BME280;8809;51.892;8.384;2023-05-22T06:51:19;100347.09;;;18.48;100.00
17383;BME280;8809;51.892;8.384;2023-05-22T06:53:47;100350.63;;;18.48;100.00
17383;BME280;8809;51.892;8.384;2023-05-22T06:56:16;100355.06;;;18.51;100.00
17383;BME280;8809;51.892;8.384;2023-05-22T06:58:43;100348.91;;;18.55;100.00
17383;BME280;8809;51.892;8.384;2023-05-22T07:01:11;100349.88;;;18.62;100.00
17383;BME280;8809;51.892;8.384;2023-05-22T07:03:38;100351.63;;;18.67;100.00
17383;BME280;8809;51.892;8.384;2023-05-22T07:06:06;100354.34;;;18.73;100.00
17383;BME280;8809;51.892;8.384;2023-05-22T07:08:33;100359.63;;;18.78;100.00
17383;BME280;8809;51.892;8.384;2023-05-22T07:11:01;100358.78;;;18.82;100.00
17383;BME280;8809;51.892;8.384;2023-05-22T07:13:32;100358.78;;;18.86;100.00
17383;BME280;8809;51.892;8.384;2023-05-22T07:16:01;100360.56;;;18.90;100.00
17383;BME280;8809;51.892;8.384;2023-05-22T07:18:28;100357.94;;;18.97;100.00
17383;BME280;8809;51.892;8.384;2023-05-22T07:20:56;100363.25;;;19.04;100.00
17383;BME280;8809;51.892;8.384;2023-05-22T07:23:24;100358.00;;;19.12;100.00
17383;BME280;8809;51.892;8.384;2023-05-22T07:25:51;100363.28;;;19.16;100.00
17383;BME280;8809;51.892;8.384;2023-05-22T07:28:18;100362.44;;;19.20;100.00
17383;BME280;8809;51.892;8.384;2023-05-22T07:30:48;100358.00;;;19.24;100.00
17383;BME280;8809;51.892;8.384;2023-05-22T07:33:16;100361.56;;;19.29;100.00
17383;BME280;8809;51.892;8.384;2023-05-22T07:35:43;100363.31;;;19.27;100.00
17383;BME280;8809;51.892;8.384;2023-05-22T07:38:11;100359.78;;;19.25;100.00
17383;BME280;8809;51.892;8.384;2023-05-22T07:40:38;100362.47;;;19.30;100.00
17383;BME280;8809;51.892;8.384;2023-05-22T07:43:06;100356.28;;;19.29;100.00
17383;BME280;8809;51.892;8.384;2023-05-22T07:45:33;100357.16;;;19.30;100.00
17383;BME280;8809;51.892;8.384;2023-05-22T07:48:02;100358.91;;;19.32;100.00
17383;BME280;8809;51.892;8.384;2023-05-22T07:50:30;100367.75;;;19.36;100.00
17383;BME280;8809;51.892;8.384;2023-05-22T07:52:58;100360.69;;;19.38;100.00
17383;BME280;8809;51.892;8.384;2023-05-22T07:55:26;100361.59;;;19.41;100.00
17383;BME280;8809;51.892;8.384;2023-05-22T07:57:54;100368.69;;;19.48;100.00
17383;BME280;8809;51.892;8.384;2023-05-22T08:00:22;100366.94;;;19.56;100.00
17383;BME280;8809;51.892;8.384;2023-05-22T08:02:50;100371.38;;;19.60;100.00
17383;BME280;8809;51.892;8.384;2023-05-22T08:05:18;100372.25;;;19.69;100.00
17383;BME280;8809;51.892;8.384;2023-05-22T08:07:46;100374.00;;;19.73;100.00
17383;BME280;8809;51.892;8.384;2023-05-22T08:10:17;100378.44;;;19.78;100.00
17383;BME280;8809;51.892;8.384;2023-05-22T08:12:45;100377.56;;;19.87;100.00
17383;BME280;8809;51.892;8.384;2023-05-22T08:15:12;100378.44;;;19.93;100.00
17383;BME280;8809;51.892;8.384;2023-05-22T08:17:39;100387.25;;;20.03;100.00
17383;BME280;8809;51.892;8.384;2023-05-22T08:20:07;100379.31;;;20.11;100.00
17383;BME280;8809;51.892;8.384;2023-05-22T08:22:42;100377.53;;;20.20;100.00
17383;BME280;8809;51.892;8.384;2023-05-22T08:25:09;100376.63;;;20.30;100.00
17383;BME280;8809;51.892;8.384;2023-05-22T08:27:37;100381.94;;;20.41;100.00
17383;BME280;8809;51.892;8.384;2023-05-22T08:30:05;100380.16;;;20.52;100.00
17383;BME280;8809;51.892;8.384;2023-05-22T08:32:34;100380.13;;;20.64;100.00
17383;BME280;8809;51.892;8.384;2023-05-22T08:35:03;100375.69;;;20.74;100.00
17383;BME280;8809;51.892;8.384;2023-05-22T08:37:31;100370.31;;;20.86;100.00
17383;BME280;8809;51.892;8.384;2023-05-22T08:39:59;100373.81;;;20.97;100.00
17383;BME280;8809;51.892;8.384;2023-05-22T08:42:27;100374.66;;;21.05;100.00
17383;BME280;8809;51.892;8.384;2023-05-22T08:44:55;100372.88;;;21.10;100.00
17383;BME280;8809;51.892;8.384;2023-05-22T08:47:25;100377.28;;;21.15;100.00
17383;BME280;8809;51.892;8.384;2023-05-22T08:49:54;100374.63;;;21.24;100.00
17383;BME280;8809;51.892;8.384;2023-05-22T08:52:32;100378.06;;;21.38;100.00
17383;BME280;8809;51.892;8.384;2023-05-22T08:55:03;100374.47;;;21.50;100.00
17383;BME280;8809;51.892;8.384;2023-05-22T08:57:33;100378.81;;;21.61;100.00
17383;BME280;8809;51.892;8.384;2023-05-22T09:00:05;100379.66;;;21.66;100.00
17383;BME280;8809;51.892;8.384;2023-05-22T09:02:33;100376.94;;;21.72;100.00
17383;BME280;8809;51.892;8.384;2023-05-22T09:05:01;100379.56;;;21.78;100.00
17383;BME280;8809;51.892;8.384;2023-05-22T09:07:30;100375.06;;;21.90;100.00
17383;BME280;8809;51.892;8.384;2023-05-22T09:09:57;100374.06;;;22.04;100.00
17383;BME280;8809;51.892;8.384;2023-05-22T09:12:27;100381.97;;;22.12;100.00
17383;BME280;8809;51.892;8.384;2023-05-22T09:14:54;100376.59;;;22.19;100.00
17383;BME280;8809;51.892;8.384;2023-05-22T09:17:26;100382.63;;;22.37;100.00
17383;BME280;8809;51.892;8.384;2023-05-22T09:19:53;100377.13;;;22.53;100.00
17383;BME280;8809;51.892;8.384;2023-05-22T09:22:21;100384.09;;;22.68;100.00
17383;BME280;8809;51.892;8.384;2023-05-22T09:24:48;100384.91;;;22.76;100.00
17383;BME280;8809;51.892;8.384;2023-05-22T09:27:16;100383.06;;;22.81;100.00
17383;BME280;8809;51.892;8.384;2023-05-22T09:29:49;100388.28;;;22.90;100.00
17383;BME280;8809;51.892;8.384;2023-05-22T09:32:17;100388.13;;;23.04;100.00
17383;BME280;8809;51.892;8.384;2023-05-22T09:34:45;100387.97;;;23.15;100.00
17383;BME280;8809;51.892;8.384;2023-05-22T09:37:14;100385.97;;;23.32;100.00
17383;BME280;8809;51.892;8.384;2023-05-22T09:39:45;100381.31;;;23.46;100.00
17383;BME280;8809;51.892;8.384;2023-05-22T09:42:14;100385.66;;;23.55;100.00
17383;BME280;8809;51.892;8.384;2023-05-22T09:44:48;100384.59;;;23.65;100.00
17383;BME280;8809;51.892;8.384;2023-05-22T09:47:16;100379.97;;;23.78;100.00
17383;BME280;8809;51.892;8.384;2023-05-22T09:49:44;100385.09;;;23.91;100.00
17383;BME280;8809;51.892;8.384;2023-05-22T09:52:13;100387.63;;;24.00;100.00
17383;BME280;8809;51.892;8.384;2023-05-22T09:54:48;100386.59;;;24.08;100.00
17383;BME280;8809;51.892;8.384;2023-05-22T09:57:20;100384.63;;;24.20;100.00
17383;BME280;8809;51.892;8.384;2023-05-22T09:59:51;100384.28;;;24.40;100.00
17383;BME280;8809;51.892;8.384;2023-05-22T10:02:24;100382.41;;;24.45;100.00
17383;BME280;8809;51.892;8.384;2023-05-22T10:04:52;100386.63;;;24.57;100.00
17383;BME280;8809;51.892;8.384;2023-05-22T10:07:21;100386.72;;;24.52;100.00
17383;BME280;8809;51.892;8.384;2023-05-22T10:09:51;100385.81;;;24.53;100.00
17383;BME280;8809;51.892;8.384;2023-05-22T10:12:22;100377.44;;;24.71;100.00
17383;BME280;8809;51.892;8.384;2023-05-22T10:14:53;100385.16;;;24.87;100.00
17383;BME280;8809;51.892;8.384;2023-05-22T10:17:22;100378.94;;;24.86;100.00
17383;BME280;8809;51.892;8.384;2023-05-22T10:19:50;100385.03;;;24.91;100.00
17383;BME280;8809;51.892;8.384;2023-05-22T10:22:19;100383.25;;;24.95;100.00
17383;BME280;8809;51.892;8.384;2023-05-22T10:24:47;100380.78;;;24.83;100.00
17383;BME280;8809;51.892;8.384;2023-05-22T10:27:14;100378.75;;;24.97;100.00
17383;BME280;8809;51.892;8.384;2023-05-22T10:29:46;100375.03;;;25.04;100.00
17383;BME280;8809;51.892;8.384;2023-05-22T10:32:23;100378.53;;;25.07;100.00
17383;BME280;8809;51.892;8.384;2023-05-22T10:35:00;100381.78;;;25.22;100.00
17383;BME280;8809;51.892;8.384;2023-05-22T10:37:43;100376.41;;;25.23;100.00
17383;BME280;8809;51.892;8.384;2023-05-22T10:40:16;100375.44;;;25.27;100.00
17383;BME280;8809;51.892;8.384;2023-05-22T10:42:45;100374.31;;;25.37;100.00
17383;BME280;8809;51.892;8.384;2023-05-22T10:45:12;100375.22;;;25.36;100.00
17383;BME280;8809;51.892;8.384;2023-05-22T10:47:44;100360.63;;;25.51;100.00
17383;BME280;8809;51.892;8.384;2023-05-22T10:50:11;100367.69;;;25.54;100.00
17383;BME280;8809;51.892;8.384;2023-05-22T10:52:39;100370.00;;;25.70;100.00
17383;BME280;8809;51.892;8.384;2023-05-22T10:55:08;100373.22;;;25.84;100.00
17383;BME280;8809;51.892;8.384;2023-05-22T10:57:37;100375.81;;;25.87;100.00
17383;BME280;8809;51.892;8.384;2023-05-22T11:00:06;100373.22;;;25.84;100.00
17383;BME280;8809;51.892;8.384;2023-05-22T11:02:39;100367.28;;;25.72;100.00
17383;BME280;8809;51.892;8.384;2023-05-22T11:05:33;100367.38;;;25.69;100.00
17383;BME280;8809;51.892;8.384;2023-05-22T11:11:12;100379.59;;;25.79;100.00
17383;BME280;8809;51.892;8.384;2023-05-22T11:13:39;100371.03;;;26.00;100.00
17383;BME280;8809;51.892;8.384;2023-05-22T11:16:08;100362.47;;;26.21;100.00
17383;BME280;8809;51.892;8.384;2023-05-22T11:18:37;100363.84;;;26.38;100.00
17383;BME280;8809;51.892;8.384;2023-05-22T11:21:08;100360.50;;;26.30;100.00
17383;BME280;8809;51.892;8.384;2023-05-22T11:23:36;100363.59;;;26.47;100.00
17383;BME280;8809;51.892;8.384;2023-05-22T11:26:21;100362.88;;;26.42;99.44
17383;BME280;8809;51.892;8.384;2023-05-22T11:28:50;100365.25;;;26.17;100.00
17383;BME280;8809;51.892;8.384;2023-05-22T11:31:19;100354.34;;;26.24;100.00
17383;BME280;8809;51.892;8.384;2023-05-22T11:33:48;100358.97;;;26.19;100.00
17383;BME280;8809;51.892;8.384;2023-05-22T11:36:17;100360.78;;;26.17;100.00
17383;BME280;8809;51.892;8.384;2023-05-22T11:38:44;100350.69;;;26.30;100.00
17383;BME280;8809;51.892;8.384;2023-05-22T11:41:11;100350.31;;;26.44;100.00
17383;BME280;8809;51.892;8.384;2023-05-22T11:43:41;100342.63;;;26.63;100.00
17383;BME280;8809;51.892;8.384;2023-05-22T11:46:09;100348.16;;;26.89;100.00
17383;BME280;8809;51.892;8.384;2023-05-22T11:48:39;100341.47;;;27.04;100.00
17383;BME280;8809;51.892;8.384;2023-05-22T11:51:19;100343.13;;;27.09;100.00
17383;BME280;8809;51.892;8.384;2023-05-22T11:53:47;100341.47;;;27.04;98.92
17383;BME280;8809;51.892;8.384;2023-05-22T11:56:15;100339.63;;;27.06;100.00
17383;BME280;8809;51.892;8.384;2023-05-22T11:58:47;100333.72;;;26.94;100.00
17383;BME280;8809;51.892;8.384;2023-05-22T12:01:14;100330.47;;;27.13;100.00
17383;BME280;8809;51.892;8.384;2023-05-22T12:03:42;100322.00;;;27.28;100.00
17383;BME280;8809;51.892;8.384;2023-05-22T12:06:09;100319.66;;;27.45;100.00
17383;BME280;8809;51.892;8.384;2023-05-22T12:08:39;100322.69;;;27.62;100.00
17383;BME280;8809;51.892;8.384;2023-05-22T12:11:10;100321.97;;;27.84;100.00
17383;BME280;8809;51.892;8.384;2023-05-22T12:13:37;100323.75;;;27.85;99.79
17383;BME280;8809;51.892;8.384;2023-05-22T12:16:17;100319.34;;;27.82;100.00
17383;BME280;8809;51.892;8.384;2023-05-22T12:18:46;100317.09;;;27.96;100.00
17383;BME280;8809;51.892;8.384;2023-05-22T12:21:13;100316.22;;;27.96;100.00
17383;BME280;8809;51.892;8.384;2023-05-22T12:23:48;100321.03;;;28.11;100.00
17383;BME280;8809;51.892;8.384;2023-05-22T12:26:16;100317.91;;;28.25;100.00
17383;BME280;8809;51.892;8.384;2023-05-22T12:28:44;100320.03;;;28.40;100.00
17383;BME280;8809;51.892;8.384;2023-05-22T12:31:19;100319.56;;;28.54;100.00
17383;BME280;8809;51.892;8.384;2023-05-22T12:33:46;100324.44;;;28.66;100.00
17383;BME280;8809;51.892;8.384;2023-05-22T12:36:13;100327.03;;;28.69;100.00
17383;BME280;8809;51.892;8.384;2023-05-22T12:38:41;100336.78;;;28.47;93.40
17383;BME280;8809;51.892;8.384;2023-05-22T12:41:10;100332.16;;;28.52;100.00
17383;BME280;8809;51.892;8.384;2023-05-22T12:43:37;100332.16;;;28.52;100.00
17383;BME280;8809;51.892;8.384;2023-05-22T12:46:04;100335.25;;;28.39;99.64
17383;BME280;8809;51.892;8.384;2023-05-22T12:48:32;100330.53;;;28.46;100.00
17383;BME280;8809;51.892;8.384;2023-05-22T12:50:59;100325.56;;;28.60;100.00
17383;BME280;8809;51.892;8.384;2023-05-22T12:53:26;100332.28;;;28.72;100.00
17383;BME280;8809;51.892;8.384;2023-05-22T12:55:54;100328.59;;;28.74;100.00
17383;BME280;8809;51.892;8.384;2023-05-22T12:58:22;100332.72;;;28.85;100.00
17383;BME280;8809;51.892;8.384;2023-05-22T13:00:51;100328.34;;;29.05;100.00
17383;BME280;8809;51.892;8.384;2023-05-22T13:03:18;100337.81;;;29.15;100.00